sensor_id;sensor_type;location;lat;lon;timestamp;P1;durP1;ratioP1;P2;durP2;ratioP2
56927;SDS011;60850;52.502;13.426;2022-12-18T00:01:14;36.55;;;13.25;;
56927;SDS011;60850;52.502;13.426;2022-12-18T00:03:43;38.97;;;13.48;;
56927;SDS011;60850;52.502;13.426;2022-12-18T00:06:11;41.70;;;13.02;;
56927;SDS011;60850;52.502;13.426;2022-12-18T00:08:39;31.15;;;10.05;;
56927;SDS011;60850;52.502;13.426;2022-12-18T00:11:07;31.80;;;10.73;;
56927;SDS011;60850;52.502;13.426;2022-12-18T00:13:34;29.90;;;9.80;;
56927;SDS011;60850;52.502;13.426;2022-12-18T00:16:04;33.13;;;9.85;;
56927;SDS011;60850;52.502;13.426;2022-12-18T00:18:33;30.95;;;10.07;;
56927;SDS011;60850;52.502;13.426;2022-12-18T00:21:00;30.98;;;10.18;;
56927;SDS011;60850;52.502;13.426;2022-12-18T00:23:29;43.15;;;12.15;;
56927;SDS011;60850;52.502;13.426;2022-12-18T00:25:58;46.13;;;15.07;;
56927;SDS011;60850;52.502;13.426;2022-12-18T00:28:25;47.90;;;14.88;;
56927;SDS011;60850;52.502;13.426;2022-12-18T00:30:59;38.30;;;11.60;;
56927;SDS011;60850;52.502;13.426;2022-12-18T00:33:28;31.38;;;10.52;;
56927;SDS011;60850;52.502;13.426;2022-12-18T00:35:59;29.58;;;9.65;;
56927;SDS011;60850;52.502;13.426;2022-12-18T00:38:27;41.67;;;12.38;;
56927;SDS011;60850;52.502;13.426;2022-12-18T00:40:54;38.03;;;11.63;;
56927;SDS011;60850;52.502;13.426;2022-12-18T00:43:21;31.70;;;11.18;;
56927;SDS011;60850;52.502;13.426;2022-12-18T00:45:47;32.58;;;10.52;;
56927;SDS011;60850;52.502;13.426;2022-12-18T00:48:14;36.00;;;10.93;;
56927;SDS011;60850;52.502;13.426;2022-12-18T00:50:43;29.55;;;9.18;;
56927;SDS011;60850;52.502;13.426;2022-12-18T00:53:10;35.40;;;10.55;;
56927;SDS011;60850;52.502;13.426;2022-12-18T00:55:37;30.60;;;10.13;;
56927;SDS011;60850;52.502;13.426;2022-12-18T00:58:05;38.97;;;11.60;;
56927;SDS011;60850;52.502;13.426;2022-12-18T01:00:32;33.90;;;11.02;;
56927;SDS011;60850;52.502;13.426;2022-12-18T01:02:59;31.27;;;10.63;;
56927;SDS011;60850;52.502;13.426;2022-12-18T01:05:28;32.47;;;8.15;;
56927;SDS011;60850;52.502;13.426;2022-12-18T01:07:56;33.35;;;10.50;;
56927;SDS011;60850;52.502;13.426;2022-12-18T01:10:24;30.63;;;9.77;;
56927;SDS011;60850;52.502;13.426;2022-12-18T01:12:52;27.33;;;7.72;;
56927;SDS011;60850;52.502;13.426;2022-12-18T01:15:19;26.90;;;8.75;;
56927;SDS011;60850;52.502;13.426;2022-12-18T01:17:46;22.75;;;8.02;;
56927;SDS011;60850;52.502;13.426;2022-12-18T01:20:13;26.15;;;8.70;;
56927;SDS011;60850;52.502;13.426;2022-12-18T01:22:40;30.38;;;8.95;;
56927;SDS011;60850;52.502;13.426;2022-12-18T01:25:09;29.52;;;10.10;;
56927;SDS011;60850;52.502;13.426;2022-12-18T01:27:36;25.30;;;7.47;;
56927;SDS011;60850;52.502;13.426;2022-12-18T01:30:04;28.80;;;8.35;;
56927;SDS011;60850;52.502;13.426;2022-12-18T01:32:32;31.20;;;10.68;;
56927;SDS011;60850;52.502;13.426;2022-12-18T01:35:00;27.40;;;9.70;;
56927;SDS011;60850;52.502;13.426;2022-12-18T01:37:27;34.22;;;9.45;;
56927;SDS011;60850;52.502;13.426;2022-12-18T01:39:54;29.35;;;10.40;;
56927;SDS011;60850;52.502;13.426;2022-12-18T01:42:22;31.30;;;10.63;;
56927;SDS011;60850;52.502;13.426;2022-12-18T01:44:58;36.85;;;11.15;;
56927;SDS011;60850;52.502;13.426;2022-12-18T01:47:29;31.88;;;9.70;;
56927;SDS011;60850;52.502;13.426;2022-12-18T01:50:01;36.40;;;10.77;;
56927;SDS011;60850;52.502;13.426;2022-12-18T01:52:31;31.27;;;10.00;;
56927;SDS011;60850;52.502;13.426;2022-12-18T01:54:59;32.38;;;10.10;;
56927;SDS011;60850;52.502;13.426;2022-12-18T01:57:30;37.83;;;11.88;;
56927;SDS011;60850;52.502;13.426;2022-12-18T01:59:59;43.22;;;12.63;;
56927;SDS011;60850;52.502;13.426;2022-12-18T02:02:30;39.85;;;12.20;;
56927;SDS011;60850;52.502;13.426;2022-12-18T02:04:57;36.25;;;11.13;;
56927;SDS011;60850;52.502;13.426;2022-12-18T02:07:26;37.83;;;10.98;;
56927;SDS011;60850;52.502;13.426;2022-12-18T02:10:03;43.80;;;11.63;;
56927;SDS011;60850;52.502;13.426;2022-12-18T02:12:42;46.33;;;12.32;;
56927;SDS011;60850;52.502;13.426;2022-12-18T02:15:13;51.35;;;13.55;;
56927;SDS011;60850;52.502;13.426;2022-12-18T02:17:46;42.53;;;12.90;;
56927;SDS011;60850;52.502;13.426;2022-12-18T02:20:20;47.08;;;12.77;;
56927;SDS011;60850;52.502;13.426;2022-12-18T02:22:59;41.13;;;12.75;;
56927;SDS011;60850;52.502;13.426;2022-12-18T02:28:33;45.67;;;11.48;;
56927;SDS011;60850;52.502;13.426;2022-12-18T02:31:05;48.70;;;13.65;;
56927;SDS011;60850;52.502;13.426;2022-12-18T02:33:37;41.45;;;12.10;;
56927;SDS011;60850;52.502;13.426;2022-12-18T02:36:06;42.88;;;13.15;;
56927;SDS011;60850;52.502;13.426;2022-12-18T02:38:35;50.47;;;13.95;;
56927;SDS011;60850;52.502;13.426;2022-12-18T02:41:04;46.05;;;12.50;;
56927;SDS011;60850;52.502;13.426;2022-12-18T02:43:32;49.88;;;14.15;;
56927;SDS011;60850;52.502;13.426;2022-12-18T02:46:00;60.85;;;15.38;;
56927;SDS011;60850;52.502;13.426;2022-12-18T02:48:51;58.58;;;15.38;;
56927;SDS011;60850;52.502;13.426;2022-12-18T02:51:24;57.88;;;15.05;;
56927;SDS011;60850;52.502;13.426;2022-12-18T02:53:58;35.80;;;10.77;;
56927;SDS011;60850;52.502;13.426;2022-12-18T02:56:35;52.38;;;13.27;;
56927;SDS011;60850;52.502;13.426;2022-12-18T02:59:09;55.38;;;14.18;;
56927;SDS011;60850;52.502;13.426;2022-12-18T03:01:42;51.10;;;13.75;;
56927;SDS011;60850;52.502;13.426;2022-12-18T03:04:16;61.75;;;13.60;;
56927;SDS011;60850;52.502;13.426;2022-12-18T03:06:48;48.47;;;14.68;;
56927;SDS011;60850;52.502;13.426;2022-12-18T03:09:19;56.10;;;15.30;;
56927;SDS011;60850;52.502;13.426;2022-12-18T03:11:55;52.50;;;14.05;;
56927;SDS011;60850;52.502;13.426;2022-12-18T03:14:43;55.08;;;15.40;;
56927;SDS011;60850;52.502;13.426;2022-12-18T03:17:15;57.25;;;16.70;;
56927;SDS011;60850;52.502;13.426;2022-12-18T03:19:45;56.90;;;14.55;;
56927;SDS011;60850;52.502;13.426;2022-12-18T03:22:13;54.25;;;15.85;;
56927;SDS011;60850;52.502;13.426;2022-12-18T03:24:42;51.58;;;14.02;;
56927;SDS011;60850;52.502;13.426;2022-12-18T03:27:14;48.60;;;12.60;;
56927;SDS011;60850;52.502;13.426;2022-12-18T03:29:46;48.22;;;14.20;;
56927;SDS011;60850;52.502;13.426;2022-12-18T03:32:19;43.83;;;12.65;;
56927;SDS011;60850;52.502;13.426;2022-12-18T03:34:53;46.20;;;12.55;;
56927;SDS011;60850;52.502;13.426;2022-12-18T03:37:25;34.75;;;12.05;;
56927;SDS011;60850;52.502;13.426;2022-12-18T03:39:52;43.15;;;12.10;;
56927;SDS011;60850;52.502;13.426;2022-12-18T03:42:22;32.55;;;10.18;;
56927;SDS011;60850;52.502;13.426;2022-12-18T03:44:55;34.83;;;10.00;;
56927;SDS011;60850;52.502;13.426;2022-12-18T03:47:29;34.40;;;9.63;;
56927;SDS011;60850;52.502;13.426;2022-12-18T03:50:03;33.88;;;10.75;;
56927;SDS011;60850;52.502;13.426;2022-12-18T03:52:37;38.30;;;10.52;;
56927;SDS011;60850;52.502;13.426;2022-12-18T03:55:07;40.08;;;11.57;;
56927;SDS011;60850;52.502;13.426;2022-12-18T03:57:37;41.53;;;11.48;;
56927;SDS011;60850;52.502;13.426;2022-12-18T04:00:07;35.08;;;10.18;;
56927;SDS011;60850;52.502;13.426;2022-12-18T04:02:36;37.72;;;11.25;;
56927;SDS011;60850;52.502;13.426;2022-12-18T04:05:07;38.63;;;11.15;;
56927;SDS011;60850;52.502;13.426;2022-12-18T04:07:37;28.38;;;8.57;;
56927;SDS011;60850;52.502;13.426;2022-12-18T04:10:05;33.80;;;8.93;;
56927;SDS011;60850;52.502;13.426;2022-12-18T04:12:37;27.88;;;8.68;;
56927;SDS011;60850;52.502;13.426;2022-12-18T04:15:05;33.55;;;10.15;;
56927;SDS011;60850;52.502;13.426;2022-12-18T04:17:33;35.53;;;10.93;;
56927;SDS011;60850;52.502;13.426;2022-12-18T04:20:00;25.38;;;8.32;;
56927;SDS011;60850;52.502;13.426;2022-12-18T04:22:27;34.20;;;10.27;;
56927;SDS011;60850;52.502;13.426;2022-12-18T04:24:55;30.40;;;9.75;;
56927;SDS011;60850;52.502;13.426;2022-12-18T04:27:22;31.52;;;9.27;;
56927;SDS011;60850;52.502;13.426;2022-12-18T04:29:50;34.85;;;10.57;;
56927;SDS011;60850;52.502;13.426;2022-12-18T04:32:17;36.05;;;9.85;;
56927;SDS011;60850;52.502;13.426;2022-12-18T04:34:44;32.78;;;9.32;;
56927;SDS011;60850;52.502;13.426;2022-12-18T04:37:11;38.97;;;10.73;;
56927;SDS011;60850;52.502;13.426;2022-12-18T04:39:38;29.52;;;8.27;;
56927;SDS011;60850;52.502;13.426;2022-12-18T04:42:06;27.48;;;10.35;;
56927;SDS011;60850;52.502;13.426;2022-12-18T04:44:33;23.23;;;8.65;;
56927;SDS011;60850;52.502;13.426;2022-12-18T04:47:01;15.50;;;4.07;;
56927;SDS011;60850;52.502;13.426;2022-12-18T04:49:28;26.52;;;9.88;;
56927;SDS011;60850;52.502;13.426;2022-12-18T04:51:56;26.40;;;8.45;;
56927;SDS011;60850;52.502;13.426;2022-12-18T04:54:22;28.02;;;7.57;;
56927;SDS011;60850;52.502;13.426;2022-12-18T04:56:50;23.63;;;7.10;;
56927;SDS011;60850;52.502;13.426;2022-12-18T04:59:16;22.52;;;8.65;;
56927;SDS011;60850;52.502;13.426;2022-12-18T05:01:44;33.08;;;9.80;;
56927;SDS011;60850;52.502;13.426;2022-12-18T05:04:12;33.47;;;9.20;;
56927;SDS011;60850;52.502;13.426;2022-12-18T05:06:39;37.30;;;9.55;;
56927;SDS011;60850;52.502;13.426;2022-12-18T05:09:06;32.35;;;9.68;;
56927;SDS011;60850;52.502;13.426;2022-12-18T05:11:33;34.97;;;10.93;;
56927;SDS011;60850;52.502;13.426;2022-12-18T05:14:00;29.20;;;9.75;;
56927;SDS011;60850;52.502;13.426;2022-12-18T05:16:27;36.92;;;10.52;;
56927;SDS011;60850;52.502;13.426;2022-12-18T05:18:54;33.55;;;9.90;;
56927;SDS011;60850;52.502;13.426;2022-12-18T05:21:23;28.48;;;8.23;;
56927;SDS011;60850;52.502;13.426;2022-12-18T05:23:50;29.50;;;8.75;;
56927;SDS011;60850;52.502;13.426;2022-12-18T05:26:18;28.30;;;9.50;;
56927;SDS011;60850;52.502;13.426;2022-12-18T05:28:45;33.70;;;9.65;;
56927;SDS011;60850;52.502;13.426;2022-12-18T05:31:12;37.80;;;9.60;;
56927;SDS011;60850;52.502;13.426;2022-12-18T05:33:39;42.03;;;11.05;;
56927;SDS011;60850;52.502;13.426;2022-12-18T05:36:07;32.92;;;9.15;;
56927;SDS011;60850;52.502;13.426;2022-12-18T05:38:38;35.72;;;9.35;;
56927;SDS011;60850;52.502;13.426;2022-12-18T05:41:06;41.10;;;11.02;;
56927;SDS011;60850;52.502;13.426;2022-12-18T05:43:34;36.88;;;10.57;;
56927;SDS011;60850;52.502;13.426;2022-12-18T05:46:03;40.42;;;9.82;;
56927;SDS011;60850;52.502;13.426;2022-12-18T05:48:31;39.65;;;10.65;;
56927;SDS011;60850;52.502;13.426;2022-12-18T05:51:03;43.33;;;10.68;;
56927;SDS011;60850;52.502;13.426;2022-12-18T05:53:32;39.42;;;10.13;;
56927;SDS011;60850;52.502;13.426;2022-12-18T05:56:01;41.08;;;10.32;;
56927;SDS011;60850;52.502;13.426;2022-12-18T05:58:29;34.63;;;10.10;;
56927;SDS011;60850;52.502;13.426;2022-12-18T06:00:57;48.17;;;11.25;;
56927;SDS011;60850;52.502;13.426;2022-12-18T06:03:24;44.53;;;12.35;;
56927;SDS011;60850;52.502;13.426;2022-12-18T06:05:51;43.55;;;11.45;;
56927;SDS011;60850;52.502;13.426;2022-12-18T06:08:18;43.30;;;12.25;;
56927;SDS011;60850;52.502;13.426;2022-12-18T06:10:49;45.08;;;11.63;;
56927;SDS011;60850;52.502;13.426;2022-12-18T06:13:19;49.30;;;12.27;;
56927;SDS011;60850;52.502;13.426;2022-12-18T06:15:47;28.45;;;9.50;;
56927;SDS011;60850;52.502;13.426;2022-12-18T06:18:14;41.15;;;11.05;;
56927;SDS011;60850;52.502;13.426;2022-12-18T06:20:41;38.08;;;11.02;;
56927;SDS011;60850;52.502;13.426;2022-12-18T06:23:08;44.55;;;11.68;;
56927;SDS011;60850;52.502;13.426;2022-12-18T06:25:37;47.60;;;12.38;;
56927;SDS011;60850;52.502;13.426;2022-12-18T06:28:04;41.35;;;13.07;;
56927;SDS011;60850;52.502;13.426;2022-12-18T06:30:33;46.63;;;12.75;;
56927;SDS011;60850;52.502;13.426;2022-12-18T06:32:59;42.22;;;12.05;;
56927;SDS011;60850;52.502;13.426;2022-12-18T06:35:27;39.88;;;12.70;;
56927;SDS011;60850;52.502;13.426;2022-12-18T06:37:54;43.80;;;13.30;;
56927;SDS011;60850;52.502;13.426;2022-12-18T06:40:21;39.00;;;12.02;;
56927;SDS011;60850;52.502;13.426;2022-12-18T06:42:48;44.42;;;13.18;;
56927;SDS011;60850;52.502;13.426;2022-12-18T06:45:15;36.65;;;11.38;;
56927;SDS011;60850;52.502;13.426;2022-12-18T06:47:43;34.35;;;11.25;;
56927;SDS011;60850;52.502;13.426;2022-12-18T06:50:11;37.63;;;11.05;;
56927;SDS011;60850;52.502;13.426;2022-12-18T06:52:39;41.97;;;11.63;;
56927;SDS011;60850;52.502;13.426;2022-12-18T06:55:07;33.60;;;10.48;;
56927;SDS011;60850;52.502;13.426;2022-12-18T06:57:34;32.97;;;10.88;;
56927;SDS011;60850;52.502;13.426;2022-12-18T07:00:02;37.03;;;11.02;;
56927;SDS011;60850;52.502;13.426;2022-12-18T07:02:30;42.65;;;11.00;;
56927;SDS011;60850;52.502;13.426;2022-12-18T07:04:59;48.33;;;11.38;;
56927;SDS011;60850;52.502;13.426;2022-12-18T07:07:26;41.20;;;10.75;;
56927;SDS011;60850;52.502;13.426;2022-12-18T07:09:54;34.03;;;10.73;;
56927;SDS011;60850;52.502;13.426;2022-12-18T07:12:20;35.20;;;11.75;;
56927;SDS011;60850;52.502;13.426;2022-12-18T07:14:48;44.30;;;13.32;;
56927;SDS011;60850;52.502;13.426;2022-12-18T07:17:14;44.92;;;11.18;;
56927;SDS011;60850;52.502;13.426;2022-12-18T07:19:42;37.08;;;11.30;;
56927;SDS011;60850;52.502;13.426;2022-12-18T07:22:10;18.20;;;6.10;;
56927;SDS011;60850;52.502;13.426;2022-12-18T07:24:37;38.22;;;11.85;;
56927;SDS011;60850;52.502;13.426;2022-12-18T07:27:04;42.70;;;11.38;;
56927;SDS011;60850;52.502;13.426;2022-12-18T07:29:31;42.60;;;12.30;;
56927;SDS011;60850;52.502;13.426;2022-12-18T07:31:58;39.42;;;10.73;;
56927;SDS011;60850;52.502;13.426;2022-12-18T07:34:25;39.60;;;10.02;;
56927;SDS011;60850;52.502;13.426;2022-12-18T07:36:52;31.60;;;10.85;;
56927;SDS011;60850;52.502;13.426;2022-12-18T07:39:21;44.83;;;12.02;;
56927;SDS011;60850;52.502;13.426;2022-12-18T07:41:48;30.77;;;10.38;;
56927;SDS011;60850;52.502;13.426;2022-12-18T07:44:35;32.80;;;10.52;;
56927;SDS011;60850;52.502;13.426;2022-12-18T07:47:02;36.10;;;11.43;;
56927;SDS011;60850;52.502;13.426;2022-12-18T07:49:30;33.72;;;10.50;;
56927;SDS011;60850;52.502;13.426;2022-12-18T07:51:57;31.63;;;9.90;;
56927;SDS011;60850;52.502;13.426;2022-12-18T07:54:26;40.22;;;11.90;;
56927;SDS011;60850;52.502;13.426;2022-12-18T07:56:53;37.75;;;10.77;;
56927;SDS011;60850;52.502;13.426;2022-12-18T07:59:20;40.92;;;11.10;;
56927;SDS011;60850;52.502;13.426;2022-12-18T08:01:47;35.17;;;9.73;;
56927;SDS011;60850;52.502;13.426;2022-12-18T08:04:14;38.40;;;11.65;;
56927;SDS011;60850;52.502;13.426;2022-12-18T08:06:41;38.85;;;11.27;;
56927;SDS011;60850;52.502;13.426;2022-12-18T08:09:09;40.17;;;12.23;;
56927;SDS011;60850;52.502;13.426;2022-12-18T08:11:37;38.50;;;12.80;;
56927;SDS011;60850;52.502;13.426;2022-12-18T08:14:04;36.38;;;12.20;;
56927;SDS011;60850;52.502;13.426;2022-12-18T08:16:31;34.33;;;10.80;;
56927;SDS011;60850;52.502;13.426;2022-12-18T08:18:59;30.55;;;8.75;;
56927;SDS011;60850;52.502;13.426;2022-12-18T08:21:27;34.42;;;9.80;;
56927;SDS011;60850;52.502;13.426;2022-12-18T08:23:56;35.90;;;9.90;;
56927;SDS011;60850;52.502;13.426;2022-12-18T08:26:26;31.23;;;9.70;;
56927;SDS011;60850;52.502;13.426;2022-12-18T08:28:57;37.53;;;10.98;;
56927;SDS011;60850;52.502;13.426;2022-12-18T08:31:25;28.27;;;8.77;;
56927;SDS011;60850;52.502;13.426;2022-12-18T08:33:54;37.50;;;12.82;;
56927;SDS011;60850;52.502;13.426;2022-12-18T08:36:21;38.17;;;11.45;;
56927;SDS011;60850;52.502;13.426;2022-12-18T08:38:50;28.75;;;9.23;;
56927;SDS011;60850;52.502;13.426;2022-12-18T08:41:17;26.83;;;8.98;;
56927;SDS011;60850;52.502;13.426;2022-12-18T08:43:45;35.45;;;10.43;;
56927;SDS011;60850;52.502;13.426;2022-12-18T08:46:33;27.88;;;9.80;;
56927;SDS011;60850;52.502;13.426;2022-12-18T08:49:04;27.00;;;8.88;;
56927;SDS011;60850;52.502;13.426;2022-12-18T08:51:32;24.75;;;9.13;;
56927;SDS011;60850;52.502;13.426;2022-12-18T08:53:59;39.00;;;9.65;;
56927;SDS011;60850;52.502;13.426;2022-12-18T08:56:27;28.15;;;9.13;;
56927;SDS011;60850;52.502;13.426;2022-12-18T08:58:55;36.30;;;9.88;;
56927;SDS011;60850;52.502;13.426;2022-12-18T09:01:22;28.77;;;10.57;;
56927;SDS011;60850;52.502;13.426;2022-12-18T09:03:51;31.63;;;10.38;;
56927;SDS011;60850;52.502;13.426;2022-12-18T09:06:19;33.33;;;10.45;;
56927;SDS011;60850;52.502;13.426;2022-12-18T09:08:48;30.90;;;9.73;;
56927;SDS011;60850;52.502;13.426;2022-12-18T09:11:19;25.10;;;9.45;;
56927;SDS011;60850;52.502;13.426;2022-12-18T09:13:48;29.52;;;9.65;;
56927;SDS011;60850;52.502;13.426;2022-12-18T09:16:16;29.75;;;10.07;;
56927;SDS011;60850;52.502;13.426;2022-12-18T09:18:43;29.08;;;9.95;;
56927;SDS011;60850;52.502;13.426;2022-12-18T09:21:12;35.78;;;11.00;;
56927;SDS011;60850;52.502;13.426;2022-12-18T09:23:42;37.65;;;10.75;;
56927;SDS011;60850;52.502;13.426;2022-12-18T09:26:09;38.38;;;12.00;;
56927;SDS011;60850;52.502;13.426;2022-12-18T09:28:36;36.25;;;11.82;;
56927;SDS011;60850;52.502;13.426;2022-12-18T09:31:04;31.42;;;11.15;;
56927;SDS011;60850;52.502;13.426;2022-12-18T09:33:33;40.38;;;13.05;;
56927;SDS011;60850;52.502;13.426;2022-12-18T09:36:01;35.38;;;9.77;;
56927;SDS011;60850;52.502;13.426;2022-12-18T09:38:30;37.20;;;11.63;;
56927;SDS011;60850;52.502;13.426;2022-12-18T09:40:59;32.22;;;10.57;;
56927;SDS011;60850;52.502;13.426;2022-12-18T09:43:33;31.48;;;10.75;;
56927;SDS011;60850;52.502;13.426;2022-12-18T09:46:05;36.95;;;11.13;;
56927;SDS011;60850;52.502;13.426;2022-12-18T09:48:34;32.25;;;10.10;;
56927;SDS011;60850;52.502;13.426;2022-12-18T09:51:05;27.10;;;9.70;;
56927;SDS011;60850;52.502;13.426;2022-12-18T09:53:41;33.67;;;11.38;;
56927;SDS011;60850;52.502;13.426;2022-12-18T09:56:12;35.08;;;10.80;;
56927;SDS011;60850;52.502;13.426;2022-12-18T09:58:45;33.97;;;10.45;;
56927;SDS011;60850;52.502;13.426;2022-12-18T10:01:18;34.03;;;10.55;;
56927;SDS011;60850;52.502;13.426;2022-12-18T10:03:48;29.80;;;9.32;;
56927;SDS011;60850;52.502;13.426;2022-12-18T10:06:18;45.42;;;12.57;;
56927;SDS011;60850;52.502;13.426;2022-12-18T10:08:54;35.60;;;10.95;;
56927;SDS011;60850;52.502;13.426;2022-12-18T10:11:28;37.60;;;11.13;;
56927;SDS011;60850;52.502;13.426;2022-12-18T10:14:08;41.65;;;11.73;;
56927;SDS011;60850;52.502;13.426;2022-12-18T10:16:41;35.73;;;11.70;;
56927;SDS011;60850;52.502;13.426;2022-12-18T10:19:18;52.97;;;14.43;;
56927;SDS011;60850;52.502;13.426;2022-12-18T10:21:56;36.13;;;12.20;;
56927;SDS011;60850;52.502;13.426;2022-12-18T10:24:30;40.80;;;11.75;;
56927;SDS011;60850;52.502;13.426;2022-12-18T10:27:09;27.58;;;8.18;;
56927;SDS011;60850;52.502;13.426;2022-12-18T10:29:40;25.70;;;9.05;;
56927;SDS011;60850;52.502;13.426;2022-12-18T10:32:09;29.88;;;10.43;;
56927;SDS011;60850;52.502;13.426;2022-12-18T10:34:41;46.90;;;12.38;;
56927;SDS011;60850;52.502;13.426;2022-12-18T10:37:12;33.50;;;10.07;;
56927;SDS011;60850;52.502;13.426;2022-12-18T10:39:44;37.00;;;11.70;;
56927;SDS011;60850;52.502;13.426;2022-12-18T10:42:15;46.95;;;13.18;;
56927;SDS011;60850;52.502;13.426;2022-12-18T10:44:43;36.35;;;12.20;;
56927;SDS011;60850;52.502;13.426;2022-12-18T10:47:11;42.30;;;12.00;;
56927;SDS011;60850;52.502;13.426;2022-12-18T10:49:42;38.25;;;10.73;;
56927;SDS011;60850;52.502;13.426;2022-12-18T10:52:15;35.35;;;11.30;;
56927;SDS011;60850;52.502;13.426;2022-12-18T10:54:49;22.55;;;8.65;;
56927;SDS011;60850;52.502;13.426;2022-12-18T11:02:49;30.73;;;9.82;;
56927;SDS011;60850;52.502;13.426;2022-12-18T11:05:24;44.70;;;13.38;;
56927;SDS011;60850;52.502;13.426;2022-12-18T11:07:55;38.38;;;10.80;;
56927;SDS011;60850;52.502;13.426;2022-12-18T11:10:25;43.95;;;14.25;;
56927;SDS011;60850;52.502;13.426;2022-12-18T11:12:55;35.95;;;13.15;;
56927;SDS011;60850;52.502;13.426;2022-12-18T11:15:25;43.92;;;13.15;;
56927;SDS011;60850;52.502;13.426;2022-12-18T11:17:55;43.10;;;12.63;;
56927;SDS011;60850;52.502;13.426;2022-12-18T11:20:31;42.25;;;14.45;;
56927;SDS011;60850;52.502;13.426;2022-12-18T11:23:01;42.67;;;11.57;;
56927;SDS011;60850;52.502;13.426;2022-12-18T11:25:32;36.80;;;12.43;;
56927;SDS011;60850;52.502;13.426;2022-12-18T11:28:00;37.55;;;12.70;;
56927;SDS011;60850;52.502;13.426;2022-12-18T11:30:30;39.90;;;13.95;;
56927;SDS011;60850;52.502;13.426;2022-12-18T11:33:00;35.25;;;12.13;;
56927;SDS011;60850;52.502;13.426;2022-12-18T11:35:34;35.43;;;12.80;;
56927;SDS011;60850;52.502;13.426;2022-12-18T11:38:12;32.95;;;11.55;;
56927;SDS011;60850;52.502;13.426;2022-12-18T11:40:51;32.30;;;9.95;;
56927;SDS011;60850;52.502;13.426;2022-12-18T11:43:26;31.58;;;10.93;;
56927;SDS011;60850;52.502;13.426;2022-12-18T11:45:59;29.90;;;10.48;;
56927;SDS011;60850;52.502;13.426;2022-12-18T11:48:34;34.83;;;10.50;;
56927;SDS011;60850;52.502;13.426;2022-12-18T11:51:09;30.42;;;10.30;;
56927;SDS011;60850;52.502;13.426;2022-12-18T11:53:40;35.35;;;12.45;;
56927;SDS011;60850;52.502;13.426;2022-12-18T11:56:16;40.65;;;13.15;;
56927;SDS011;60850;52.502;13.426;2022-12-18T11:58:57;28.67;;;9.38;;
56927;SDS011;60850;52.502;13.426;2022-12-18T12:01:33;36.17;;;10.82;;
56927;SDS011;60850;52.502;13.426;2022-12-18T12:06:55;34.28;;;10.60;;
56927;SDS011;60850;52.502;13.426;2022-12-18T12:09:32;42.80;;;12.88;;
56927;SDS011;60850;52.502;13.426;2022-12-18T12:12:13;37.63;;;13.07;;
56927;SDS011;60850;52.502;13.426;2022-12-18T12:14:52;30.25;;;11.07;;
56927;SDS011;60850;52.502;13.426;2022-12-18T12:17:30;32.80;;;10.00;;
56927;SDS011;60850;52.502;13.426;2022-12-18T12:20:07;30.48;;;9.45;;
56927;SDS011;60850;52.502;13.426;2022-12-18T12:22:41;38.05;;;12.27;;
56927;SDS011;60850;52.502;13.426;2022-12-18T12:25:18;30.40;;;9.85;;
56927;SDS011;60850;52.502;13.426;2022-12-18T12:27:56;35.22;;;10.80;;
56927;SDS011;60850;52.502;13.426;2022-12-18T12:30:39;29.25;;;10.57;;
56927;SDS011;60850;52.502;13.426;2022-12-18T12:33:18;35.22;;;11.60;;
56927;SDS011;60850;52.502;13.426;2022-12-18T12:35:58;37.50;;;11.50;;
56927;SDS011;60850;52.502;13.426;2022-12-18T12:38:34;35.08;;;12.45;;
56927;SDS011;60850;52.502;13.426;2022-12-18T12:41:09;44.20;;;13.40;;
56927;SDS011;60850;52.502;13.426;2022-12-18T12:43:55;32.28;;;11.18;;
56927;SDS011;60850;52.502;13.426;2022-12-18T12:46:25;35.38;;;11.07;;
56927;SDS011;60850;52.502;13.426;2022-12-18T12:48:53;29.00;;;10.65;;
56927;SDS011;60850;52.502;13.426;2022-12-18T12:51:24;36.10;;;11.98;;
56927;SDS011;60850;52.502;13.426;2022-12-18T12:53:52;36.20;;;11.02;;
56927;SDS011;60850;52.502;13.426;2022-12-18T12:56:24;40.67;;;12.05;;
56927;SDS011;60850;52.502;13.426;2022-12-18T12:59:04;27.77;;;9.02;;
56927;SDS011;60850;52.502;13.426;2022-12-18T13:01:41;31.90;;;10.90;;
56927;SDS011;60850;52.502;13.426;2022-12-18T13:04:19;29.88;;;12.18;;
56927;SDS011;60850;52.502;13.426;2022-12-18T13:06:54;33.03;;;11.40;;
56927;SDS011;60850;52.502;13.426;2022-12-18T13:09:29;27.98;;;9.57;;
56927;SDS011;60850;52.502;13.426;2022-12-18T13:12:01;23.45;;;9.77;;
56927;SDS011;60850;52.502;13.426;2022-12-18T13:15:02;30.00;;;10.27;;
56927;SDS011;60850;52.502;13.426;2022-12-18T13:17:39;28.48;;;10.80;;
56927;SDS011;60850;52.502;13.426;2022-12-18T13:20:07;29.58;;;10.55;;
56927;SDS011;60850;52.502;13.426;2022-12-18T13:22:38;25.13;;;10.30;;
56927;SDS011;60850;52.502;13.426;2022-12-18T13:28:11;29.95;;;10.88;;
56927;SDS011;60850;52.502;13.426;2022-12-18T13:30:44;35.25;;;11.85;;
56927;SDS011;60850;52.502;13.426;2022-12-18T13:36:09;28.92;;;9.25;;
56927;SDS011;60850;52.502;13.426;2022-12-18T13:38:40;32.35;;;13.63;;
56927;SDS011;60850;52.502;13.426;2022-12-18T13:41:21;40.28;;;13.95;;
56927;SDS011;60850;52.502;13.426;2022-12-18T13:43:50;20.05;;;6.95;;
56927;SDS011;60850;52.502;13.426;2022-12-18T13:46:21;34.42;;;11.80;;
56927;SDS011;60850;52.502;13.426;2022-12-18T13:48:55;31.63;;;10.07;;
56927;SDS011;60850;52.502;13.426;2022-12-18T13:53:53;23.60;;;9.27;;
56927;SDS011;60850;52.502;13.426;2022-12-18T13:56:23;33.40;;;10.77;;
56927;SDS011;60850;52.502;13.426;2022-12-18T14:01:43;30.33;;;11.60;;
56927;SDS011;60850;52.502;13.426;2022-12-18T14:04:12;40.25;;;14.32;;
56927;SDS011;60850;52.502;13.426;2022-12-18T14:06:46;30.67;;;11.05;;
56927;SDS011;60850;52.502;13.426;2022-12-18T14:09:14;37.17;;;11.65;;
56927;SDS011;60850;52.502;13.426;2022-12-18T14:11:46;29.73;;;11.00;;
56927;SDS011;60850;52.502;13.426;2022-12-18T14:14:15;36.10;;;12.23;;
56927;SDS011;60850;52.502;13.426;2022-12-18T14:16:44;33.80;;;12.75;;
56927;SDS011;60850;52.502;13.426;2022-12-18T14:19:14;34.92;;;12.73;;
56927;SDS011;60850;52.502;13.426;2022-12-18T14:21:47;26.95;;;10.95;;
56927;SDS011;60850;52.502;13.426;2022-12-18T14:24:17;33.85;;;10.88;;
56927;SDS011;60850;52.502;13.426;2022-12-18T14:26:45;41.70;;;12.70;;
56927;SDS011;60850;52.502;13.426;2022-12-18T14:29:18;31.65;;;11.82;;
56927;SDS011;60850;52.502;13.426;2022-12-18T14:32:09;35.65;;;12.68;;
56927;SDS011;60850;52.502;13.426;2022-12-18T14:34:38;32.22;;;11.15;;
56927;SDS011;60850;52.502;13.426;2022-12-18T14:37:05;31.42;;;11.50;;
56927;SDS011;60850;52.502;13.426;2022-12-18T14:39:36;29.65;;;11.50;;
56927;SDS011;60850;52.502;13.426;2022-12-18T14:42:03;30.95;;;11.38;;
56927;SDS011;60850;52.502;13.426;2022-12-18T14:44:30;35.50;;;12.07;;
56927;SDS011;60850;52.502;13.426;2022-12-18T14:46:57;26.70;;;10.52;;
56927;SDS011;60850;52.502;13.426;2022-12-18T14:49:27;24.88;;;9.68;;
56927;SDS011;60850;52.502;13.426;2022-12-18T14:51:57;29.90;;;12.18;;